Terminal Aerodrome Forecast
Issued by NWS Charleston, WV

Current Version | Previous Version | Text Only | Print | Product List | Glossary On
Versions: 1 2 3 4 5 6 7 8 9 10 11 12 13 14 15 16 17 18 19 20 21 22 23 24 25 26 27 28 29 30
000
FTUS41 KRLX 282100 CCB
TAFCRW
TAF COR
KCRW 282153Z 2822/2918 29008KT P6SM SCT025 BKN050
      TEMPO 2822/2823 BKN025 OVC060
     FM290700 00000KT 4SM BR SCT040
     FM290900 00000KT 1/4SM FG VV001
     FM291300 00000KT 3SM BR FEW070
     FM291400 VRB03KT P6SM SCT040=

USA.gov is the U.S. government's official web portal to all federal, state and local government web resources and services.